Time;durP1;ratioP1;P1;durP2;ratioP2;P2;SDS_P1;SDS_P2;PMS_P1;PMS_P2;Temp;Humidity;BMP_temperature;BMP_pressure;BME280_temperature;BME280_humidity;BME280_pressure;Samples;Min_cycle;Max_cycle;Signal;HPM_P1;HPM_P2
2023/05/16 00:00:09;;;;;;;14.60;3.60;;;;;;;9.44;94.51;101893.31;4954061;29;20034;-76
2023/05/16 00:02:36;;;;;;;17.25;4.15;;;;;;;9.26;94.48;101871.72;4937392;29;20058;-76
2023/05/16 00:05:03;;;;;;;17.02;4.50;;;;;;;9.40;95.51;101887.44;4954025;29;20042;-76
2023/05/16 00:07:29;;;;;;;17.40;3.50;;;;;;;9.40;95.02;101894.34;4953962;29;20383;-85
2023/05/16 00:09:55;;;;;;;12.32;3.35;;;;;;;9.25;94.74;101870.03;4953939;28;20023;-78
2023/05/16 00:12:21;;;;;;;13.95;3.38;;;;;;;9.25;93.76;101882.09;4956376;29;20039;-85
2023/05/16 00:14:47;;;;;;;18.02;4.15;;;;;;;9.04;93.90;101861.41;4957806;29;20026;-88
2023/05/16 00:17:13;;;;;;;12.85;3.63;;;;;;;9.04;94.68;101860.56;4957669;29;20067;-89
2023/05/16 00:19:39;;;;;;;16.38;3.53;;;;;;;9.24;94.08;101888.94;4940359;29;20074;-89
2023/05/16 00:22:05;;;;;;;17.58;3.17;;;;;;;9.23;93.86;101900.16;4957446;29;20534;-88
2023/05/16 00:24:31;;;;;;;11.65;3.28;;;;;;;9.03;93.66;101879.50;4957295;29;20046;-79
2023/05/16 00:26:56;;;;;;;13.20;3.33;;;;;;;8.96;93.15;101873.78;4958358;29;20023;-81
2023/05/16 00:29:23;;;;;;;13.38;3.13;;;;;;;9.06;93.94;101906.00;4961271;29;20360;-87
2023/05/16 00:31:48;;;;;;;14.95;3.20;;;;;;;8.72;93.59;101872.97;4957372;29;20035;-86
2023/05/16 00:34:14;;;;;;;15.57;3.53;;;;;;;8.85;94.06;101894.81;4957322;29;20039;-81
2023/05/16 00:36:39;;;;;;;12.13;3.03;;;;;;;8.79;94.50;101895.03;4957381;29;20062;-89
2023/05/16 00:39:05;;;;;;;14.05;3.17;;;;;;;8.73;94.49;101881.53;4957076;29;20049;-83
2023/05/16 00:41:30;;;;;;;19.83;3.22;;;;;;;8.75;94.49;101884.88;4956903;29;20035;-80
2023/05/16 00:43:56;;;;;;;15.25;2.75;;;;;;;8.58;93.92;101872.69;4956836;29;20034;-80
2023/05/16 00:46:21;;;;;;;13.27;2.50;;;;;;;8.63;94.16;101905.06;4956914;29;20031;-76
2023/05/16 00:48:47;;;;;;;13.43;2.40;;;;;;;8.50;93.79;101890.16;4956942;29;20032;-84
2023/05/16 00:51:12;;;;;;;14.45;2.85;;;;;;;8.31;94.20;101882.22;4939941;29;20023;-76
2023/05/16 00:53:38;;;;;;;18.27;3.35;;;;;;;8.26;94.80;101882.41;4957115;29;20055;-80
2023/05/16 00:56:05;;;;;;;15.43;3.53;;;;;;;7.98;95.86;101856.00;4956705;29;20063;-81
2023/05/16 00:58:32;;;;;;;15.93;3.10;;;;;;;8.17;96.51;101913.63;4956699;29;20035;-84
2023/05/16 01:00:58;;;;;;;18.13;2.88;;;;;;;7.91;96.19;101882.81;4956583;29;20142;-84
2023/05/16 01:03:24;;;;;;;13.30;2.67;;;;;;;7.95;96.49;101899.81;4956539;29;20019;-77
2023/05/16 01:05:49;;;;;;;14.05;3.03;;;;;;;7.98;96.69;101915.16;4956457;29;20082;-86
2023/05/16 01:08:15;;;;;;;16.25;3.42;;;;;;;7.53;97.07;101837.84;4956621;29;20038;-83
2023/05/16 01:10:57;;;;;;;15.20;3.08;;;;;;;7.85;97.39;101906.16;4956436;29;20027;-86
2023/05/16 01:13:31;;;;;;;13.18;3.72;;;;;;;7.80;97.25;101911.47;4956577;29;20059;-81
2023/05/16 01:16:08;;;;;;;18.20;3.15;;;;;;;7.70;97.35;101915.25;4956297;29;20037;-84
2023/05/16 01:18:55;;;;;;;17.52;3.22;;;;;;;7.54;97.55;101903.78;4956355;29;20493;-76
2023/05/16 01:21:43;;;;;;;11.00;2.83;;;;;;;7.59;97.85;101918.19;4956241;29;20395;-81
2023/05/16 01:24:20;;;;;;;13.02;2.50;;;;;;;7.52;97.92;101921.84;4938665;29;20050;-83
2023/05/16 01:26:45;;;;;;;13.38;2.60;;;;;;;7.48;98.03;101913.41;4956290;29;20054;-80
2023/05/16 01:29:11;;;;;;;16.50;3.30;;;;;;;7.46;98.52;101919.44;4956209;29;20023;-77
2023/05/16 01:31:36;;;;;;;16.83;2.88;;;;;;;7.40;98.36;101928.22;4955989;29;20086;-88
2023/05/16 01:34:02;;;;;;;18.50;3.40;;;;;;;7.21;98.26;101900.59;4956065;29;20456;-88
2023/05/16 01:36:51;;;;;;;13.32;3.20;;;;;;;7.31;98.52;101928.50;4956194;29;20416;-86
2023/05/16 01:39:24;;;;;;;12.93;2.85;;;;;;;7.27;98.63;101929.47;4956044;29;20412;-87
2023/05/16 01:41:56;;;;;;;18.58;2.95;;;;;;;7.10;99.12;101900.94;4955918;29;20498;-85
2023/05/16 01:44:28;;;;;;;15.43;2.83;;;;;;;6.93;99.10;101882.63;4955538;29;20078;-86
2023/05/16 01:46:57;;;;;;;12.93;2.72;;;;;;;7.08;99.27;101920.66;4955720;29;20023;-90
2023/05/16 01:49:44;;;;;;;12.70;3.15;;;;;;;6.91;99.10;101900.66;4955756;29;20078;-87
2023/05/16 01:52:25;;;;;;;15.13;3.13;;;;;;;6.84;99.36;101891.44;4955909;29;20468;-88
2023/05/16 01:54:53;;;;;;;14.75;3.05;;;;;;;6.95;99.39;101927.06;4955541;29;20031;-87
2023/05/16 01:57:21;;;;;;;10.73;2.75;;;;;;;6.88;99.48;101934.09;4955709;29;20086;-89
2023/05/16 01:59:47;;;;;;;16.75;2.97;;;;;;;6.82;99.94;101935.16;4955314;29;20081;-88
2023/05/16 02:02:13;;;;;;;18.20;3.10;;;;;;;6.83;100.00;101936.81;4955651;29;20043;-88
2023/05/16 02:04:38;;;;;;;17.63;2.72;;;;;;;6.82;100.00;101936.88;4955656;29;20062;-87
2023/05/16 02:07:03;;;;;;;12.43;2.75;;;;;;;6.76;100.00;101930.19;4955475;29;20024;-80
2023/05/16 02:09:29;;;;;;;12.48;2.70;;;;;;;6.74;100.00;101933.69;4955398;29;20403;-88
2023/05/16 02:11:54;;;;;;;13.85;2.67;;;;;;;6.59;100.00;101933.25;4938354;29;20471;-87
2023/05/16 02:14:20;;;;;;;12.55;2.75;;;;;;;6.49;100.00;101931.84;4955093;29;20063;-81
2023/05/16 02:16:45;;;;;;;12.45;2.65;;;;;;;6.51;100.00;101937.75;4937973;29;20177;-87
2023/05/16 02:19:11;;;;;;;17.67;3.65;;;;;;;6.55;100.00;101943.63;4955415;29;20027;-82
2023/05/16 02:21:36;;;;;;;12.32;2.67;;;;;;;6.56;100.00;101948.72;4955261;29;20456;-87
2023/05/16 02:24:01;;;;;;;13.77;2.75;;;;;;;6.55;100.00;101952.19;4955040;29;20023;-83
2023/05/16 02:26:27;;;;;;;14.73;2.70;;;;;;;6.24;100.00;101900.88;4955166;29;20159;-90
2023/05/16 02:28:53;;;;;;;12.43;2.72;;;;;;;6.36;100.00;101920.22;4954886;29;20023;-91
2023/05/16 02:31:25;;;;;;;10.93;2.60;;;;;;;6.46;100.00;101931.91;4955317;29;20114;-76
2023/05/16 02:33:51;;;;;;;11.27;2.67;;;;;;;6.41;100.00;101930.38;4954350;28;20074;-81
2023/05/16 02:36:16;;;;;;;14.05;2.55;;;;;;;6.52;100.00;101957.41;4954966;29;20031;-88
2023/05/16 02:38:41;;;;;;;12.18;3.00;;;;;;;6.07;100.00;101886.84;4937827;29;20027;-84
2023/05/16 02:41:07;;;;;;;14.05;2.63;;;;;;;6.22;100.00;101918.06;4954679;29;20121;-90
2023/05/16 02:43:32;;;;;;;16.13;3.25;;;;;;;6.32;100.00;101945.13;4954730;29;20427;-88
2023/05/16 02:45:57;;;;;;;10.00;2.55;;;;;;;6.39;100.00;101961.22;4954751;29;20032;-85
2023/05/16 02:48:22;;;;;;;13.18;2.83;;;;;;;6.37;100.00;101960.38;4954865;29;20394;-84
2023/05/16 02:50:48;;;;;;;15.70;2.75;;;;;;;6.26;100.00;101954.72;4954798;29;20530;-88
2023/05/16 02:53:13;;;;;;;16.38;2.92;;;;;;;6.14;100.00;101949.91;4954877;29;20486;-89
2023/05/16 02:55:38;;;;;;;10.93;2.75;;;;;;;6.15;100.00;101964.41;4954701;29;20031;-78
2023/05/16 02:58:04;;;;;;;13.00;3.10;;;;;;;6.27;100.00;101971.78;4937596;29;20027;-89
2023/05/16 03:00:29;;;;;;;13.73;2.97;;;;;;;6.36;100.00;101976.66;4954426;29;20063;-88
2023/05/16 03:02:55;;;;;;;11.55;3.05;;;;;;;6.19;100.00;101954.03;4937646;29;20099;-76
2023/05/16 03:05:20;;;;;;;13.75;3.30;;;;;;;6.01;100.00;101929.72;4954627;29;20035;-79
2023/05/16 03:07:45;;;;;;;10.88;2.53;;;;;;;6.19;100.00;101973.69;4954475;29;20031;-87
2023/05/16 03:10:11;;;;;;;15.90;3.30;;;;;;;6.25;100.00;101983.81;4954649;29;20118;-85
2023/05/16 03:12:36;;;;;;;15.00;3.08;;;;;;;6.22;100.00;101989.88;4954596;29;20475;-90
2023/05/16 03:15:02;;;;;;;12.18;2.70;;;;;;;6.18;100.00;101993.38;4954308;29;20091;-85
2023/05/16 03:17:28;;;;;;;12.13;3.25;;;;;;;6.11;100.00;101991.88;4954563;29;20475;-87
2023/05/16 03:19:53;;;;;;;16.08;3.28;;;;;;;6.12;100.00;101997.84;4954526;29;20038;-87
2023/05/16 03:22:18;;;;;;;8.00;2.90;;;;;;;5.95;100.00;101975.19;4937237;29;20042;-90
2023/05/16 03:24:44;;;;;;;15.00;3.13;;;;;;;6.03;100.00;102004.88;4954320;29;20502;-89
2023/05/16 03:27:10;;;;;;;13.68;3.08;;;;;;;6.00;100.00;101994.72;4954538;29;20024;-89
2023/05/16 03:29:35;;;;;;;12.02;3.28;;;;;;;5.94;100.00;101992.28;4954188;29;20034;-90
2023/05/16 03:32:01;;;;;;;12.57;2.92;;;;;;;5.94;100.00;101989.72;4954402;29;20039;-86
2023/05/16 03:34:27;;;;;;;12.82;2.80;;;;;;;5.92;100.00;101999.19;4954348;29;20031;-86
2023/05/16 03:36:52;;;;;;;14.00;3.70;;;;;;;5.89;100.00;101999.22;4954338;29;20179;-90
2023/05/16 03:39:17;;;;;;;12.88;2.67;;;;;;;5.84;100.00;101995.94;4954113;29;20030;-91
2023/05/16 03:41:43;;;;;;;14.93;3.10;;;;;;;5.72;100.00;101979.13;4954385;29;20032;-87
2023/05/16 03:44:08;;;;;;;14.05;3.13;;;;;;;5.63;100.00;101963.97;4954024;29;20023;-88
2023/05/16 03:46:34;;;;;;;12.18;2.80;;;;;;;5.84;100.00;102001.06;4957018;28;20098;-85
2023/05/16 03:49:00;;;;;;;11.55;2.95;;;;;;;5.61;100.00;101963.19;4958177;29;20082;-90
2023/05/16 03:51:25;;;;;;;12.40;3.00;;;;;;;5.86;100.00;102006.16;4957800;29;20019;-87
2023/05/16 03:53:51;;;;;;;12.77;3.40;;;;;;;5.87;100.00;102016.34;4957918;29;20032;-86
2023/05/16 03:56:16;;;;;;;14.13;3.53;;;;;;;5.85;100.00;102009.59;4958007;29;20023;-84
2023/05/16 03:58:41;;;;;;;11.38;3.08;;;;;;;5.86;100.00;102019.81;4957842;29;20352;-90
2023/05/16 04:01:07;;;;;;;16.50;3.20;;;;;;;5.87;100.00;102021.47;4957602;29;20059;-89
2023/05/16 04:03:32;;;;;;;15.60;3.63;;;;;;;5.62;100.00;101972.56;4957633;29;20502;-89
2023/05/16 04:05:58;;;;;;;10.98;3.65;;;;;;;5.93;100.00;102026.50;4958065;29;20027;-89
2023/05/16 04:08:24;;;;;;;9.70;3.17;;;;;;;5.86;100.00;102017.25;4957741;29;20392;-85
2023/05/16 04:10:49;;;;;;;12.38;3.15;;;;;;;5.93;100.00;102018.81;4957557;29;20036;-87
2023/05/16 04:13:15;;;;;;;13.00;3.83;;;;;;;5.90;100.00;102007.75;4957708;29;20032;-79
2023/05/16 04:15:40;;;;;;;15.63;3.90;;;;;;;5.91;100.00;102007.75;4957429;29;20039;-85
2023/05/16 04:18:06;;;;;;;10.93;2.80;;;;;;;6.06;100.00;102034.72;4957395;29;20027;-87
2023/05/16 04:20:31;;;;;;;13.57;3.80;;;;;;;6.12;100.00;102028.63;4957669;29;20102;-91
2023/05/16 04:22:56;;;;;;;15.75;3.67;;;;;;;6.14;100.00;102029.41;4957952;29;20086;-88
2023/05/16 04:25:22;;;;;;;13.82;3.25;;;;;;;6.22;100.00;102032.63;4957862;29;20034;-89
2023/05/16 04:27:47;;;;;;;19.42;4.07;;;;;;;6.29;100.00;102034.13;4960397;29;20031;-87
2023/05/16 04:30:13;;;;;;;13.52;3.58;;;;;;;6.31;100.00;102034.97;4966296;29;20019;-86
2023/05/16 04:32:38;;;;;;;14.25;3.15;;;;;;;6.36;100.00;102043.38;4963795;29;20069;-75
2023/05/16 04:35:04;;;;;;;13.65;3.83;;;;;;;6.39;100.00;102042.44;4943834;29;20078;-76
2023/05/16 04:37:30;;;;;;;14.40;3.22;;;;;;;6.31;100.00;102027.28;4957396;29;20039;-82
2023/05/16 04:39:55;;;;;;;14.45;2.75;;;;;;;6.50;100.00;102059.25;4958483;29;20027;-90
2023/05/16 04:42:21;;;;;;;10.02;2.72;;;;;;;6.44;100.00;102031.19;4942436;29;20537;-90
2023/05/16 04:44:49;;;;;;;12.75;3.13;;;;;;;6.52;100.00;102036.97;4963135;29;20063;-87
2023/05/16 04:47:14;;;;;;;16.40;3.75;;;;;;;6.70;100.00;102053.59;4959324;29;20027;-84
2023/05/16 04:49:40;;;;;;;10.05;2.92;;;;;;;6.72;100.00;102050.97;4957508;29;20489;-87
2023/05/16 04:52:07;;;;;;;24.05;3.53;;;;;;;6.71;99.89;102041.59;4957107;29;20031;-86
2023/05/16 04:54:32;;;;;;;14.10;3.00;;;;;;;6.93;99.52;102064.94;4956942;29;20035;-87
2023/05/16 04:56:58;;;;;;;13.68;2.90;;;;;;;6.90;98.63;102043.63;4956262;28;20411;-84
2023/05/16 04:59:23;;;;;;;21.90;3.80;;;;;;;7.16;97.88;102077.97;4956880;29;20102;-86
2023/05/16 05:01:50;;;;;;;13.93;2.92;;;;;;;7.25;97.82;102017.78;4956162;29;20055;-92
2023/05/16 05:04:16;;;;;;;11.82;2.72;;;;;;;8.83;93.03;102065.75;4956886;29;20122;-91
2023/05/16 05:06:42;;;;;;;10.98;2.85;;;;;;;10.30;84.75;102066.03;4938930;29;20512;-86
2023/05/16 05:09:07;;;;;;;12.90;2.50;;;;;;;11.75;77.18;102065.50;4956533;29;20031;-87
2023/05/16 05:11:33;;;;;;;12.85;2.58;;;;;;;12.83;72.81;102077.34;4956543;29;20027;-88
2023/05/16 05:13:58;;;;;;;13.93;2.42;;;;;;;13.75;67.36;102074.97;4956506;29;20086;-90
2023/05/16 05:16:23;;;;;;;12.82;2.33;;;;;;;14.30;63.38;102071.81;4956259;29;20066;-86
2023/05/16 05:18:49;;;;;;;9.40;2.10;;;;;;;14.76;61.40;102066.50;4939393;29;20222;-80
2023/05/16 05:21:14;;;;;;;10.95;1.95;;;;;;;15.27;59.34;102077.22;4939211;29;20036;-80
2023/05/16 05:23:40;;;;;;;11.73;2.20;;;;;;;15.40;56.75;102024.28;4956178;29;20063;-84
2023/05/16 05:26:10;;;;;;;13.48;2.50;;;;;;;16.17;54.55;102068.78;4939399;29;20440;-78
2023/05/16 05:28:36;;;;;;;6.80;1.70;;;;;;;16.26;53.91;102075.97;4955999;28;20106;-80
2023/05/16 05:31:04;;;;;;;7.85;1.48;;;;;;;16.75;52.49;102075.28;4956077;28;20037;-86
2023/05/16 05:33:30;;;;;;;8.52;2.20;;;;;;;17.05;50.18;102078.38;4956598;29;20118;-93
2023/05/16 05:35:55;;;;;;;6.13;1.90;;;;;;;16.98;50.15;102084.13;4956240;29;20062;-86
2023/05/16 05:38:21;;;;;;;8.60;1.70;;;;;;;17.36;49.78;102084.00;4956111;29;20447;-92
2023/05/16 05:40:46;;;;;;;10.55;1.67;;;;;;;17.91;47.06;102067.81;4956594;29;20020;-79
2023/05/16 05:43:12;;;;;;;10.60;1.70;;;;;;;18.19;47.04;102094.47;4956108;29;20058;-91
2023/05/16 05:45:37;;;;;;;6.93;1.88;;;;;;;18.31;46.44;102086.56;4956204;29;20090;-86
2023/05/16 05:48:02;;;;;;;5.07;1.50;;;;;;;18.49;45.80;102071.25;4955608;29;20110;-87
2023/05/16 05:50:28;;;;;;;8.32;1.65;;;;;;;18.58;45.74;102086.25;4955790;29;20066;-80
2023/05/16 05:52:54;;;;;;;8.70;2.38;;;;;;;18.87;44.41;102081.38;4955664;29;20536;-79
2023/05/16 05:55:19;;;;;;;10.98;2.03;;;;;;;19.16;43.54;102086.94;4955566;29;20111;-76
2023/05/16 05:57:45;;;;;;;7.03;1.90;;;;;;;19.47;43.55;102095.00;4955775;29;20042;-76
2023/05/16 06:00:11;;;;;;;11.40;2.22;;;;;;;19.48;43.25;102101.91;4955533;29;20062;-73
2023/05/16 06:02:36;;;;;;;7.75;1.98;;;;;;;19.17;42.80;102101.72;4955266;29;20055;-81
2023/05/16 06:05:02;;;;;;;10.20;2.40;;;;;;;18.63;43.02;102086.72;4955382;29;20133;-81
2023/05/16 06:07:27;;;;;;;11.48;1.83;;;;;;;19.23;42.74;102104.81;4955454;29;20031;-80
2023/05/16 06:09:52;;;;;;;10.43;2.00;;;;;;;19.34;42.33;102112.63;4954567;28;20132;-87
2023/05/16 06:12:17;;;;;;;8.38;2.08;;;;;;;19.48;43.14;102113.22;4955414;29;20092;-81
2023/05/16 06:14:43;;;;;;;7.18;1.83;;;;;;;19.86;41.11;102100.56;4955440;29;20027;-78
2023/05/16 06:17:08;;;;;;;7.55;1.70;;;;;;;20.02;41.13;102069.53;4955367;29;20106;-77
2023/05/16 06:19:34;;;;;;;8.32;1.63;;;;;;;20.49;39.83;102115.41;4955112;29;20038;-77
2023/05/16 06:21:59;;;;;;;10.27;1.88;;;;;;;20.37;39.32;102116.41;4955143;29;20038;-88
2023/05/16 06:24:24;;;;;;;7.38;1.83;;;;;;;20.15;40.34;102066.69;4955243;29;20368;-89
2023/05/16 06:26:51;;;;;;;13.07;1.90;;;;;;;21.11;38.15;102124.94;4955055;29;20475;-91
2023/05/16 06:29:16;;;;;;;7.55;1.67;;;;;;;21.09;39.33;102118.97;4955110;29;20027;-85
2023/05/16 06:31:42;;;;;;;7.72;1.45;;;;;;;20.84;38.97;102119.44;4955601;29;20386;-90
2023/05/16 06:34:07;;;;;;;10.57;2.20;;;;;;;21.17;38.17;102123.56;4954668;29;20398;-90
2023/05/16 06:36:33;;;;;;;11.68;2.13;;;;;;;21.04;37.94;102104.56;4955141;29;20035;-89
2023/05/16 06:38:58;;;;;;;10.07;1.58;;;;;;;20.81;39.31;102115.28;4955080;29;20031;-73
2023/05/16 06:41:25;;;;;;;8.25;2.03;;;;;;;20.86;38.53;102120.97;4954774;29;20106;-81
2023/05/16 06:43:51;;;;;;;8.13;1.90;;;;;;;20.39;38.82;102122.38;4936909;29;20042;-86
2023/05/16 06:46:16;;;;;;;11.27;2.00;;;;;;;20.25;39.08;102115.63;4955475;29;20082;-90
2023/05/16 06:48:41;;;;;;;7.95;1.75;;;;;;;20.59;39.18;102097.09;4956992;29;20034;-90
2023/05/16 06:51:07;;;;;;;6.53;1.75;;;;;;;20.03;38.93;102126.25;4938358;29;20035;-80
2023/05/16 06:53:32;;;;;;;6.57;1.45;;;;;;;19.36;40.33;102079.28;4955769;29;20051;-84
2023/05/16 06:55:57;;;;;;;6.93;1.92;;;;;;;19.72;39.91;102125.31;4958519;29;20130;-83
2023/05/16 06:58:23;;;;;;;9.15;2.00;;;;;;;19.76;40.36;102124.94;4954961;29;20034;-78
2023/05/16 07:00:49;;;;;;;8.13;1.58;;;;;;;20.18;39.46;102117.13;4954227;28;20055;-86
2023/05/16 07:03:14;;;;;;;7.05;1.60;;;;;;;20.69;37.18;102123.38;4954714;29;20031;-83
2023/05/16 07:05:40;;;;;;;7.55;1.80;;;;;;;20.29;37.76;102127.56;4954395;29;20035;-83
2023/05/16 07:10:56;;;;;;;6.47;1.38;;;;;;;19.51;40.76;102124.38;5133043;23;20437;-76
2023/05/16 07:13:21;;;;;;;7.47;1.60;;;;;;;19.99;38.42;102119.59;4973592;28;20043;-76
2023/05/16 07:15:47;;;;;;;5.85;1.45;;;;;;;19.93;37.85;102131.41;4955965;28;20039;-75
2023/05/16 07:18:12;;;;;;;7.60;1.63;;;;;;;19.41;37.70;102130.38;4955868;28;20047;-75
2023/05/16 07:20:38;;;;;;;5.70;1.20;;;;;;;19.31;38.55;102129.44;4975286;28;20101;-76
2023/05/16 07:23:03;;;;;;;9.00;1.50;;;;;;;19.51;37.92;102138.31;4977698;28;20370;-77
2023/05/16 07:25:29;;;;;;;8.48;1.33;;;;;;;19.34;38.18;102142.28;4977728;28;20058;-78
2023/05/16 07:27:54;;;;;;;7.85;1.60;;;;;;;18.34;40.65;102145.63;4977732;28;20027;-90
2023/05/16 07:30:20;;;;;;;7.55;1.40;;;;;;;17.48;43.18;102137.97;4977439;28;20027;-74
2023/05/16 07:32:45;;;;;;;5.30;1.02;;;;;;;16.46;45.85;102143.28;4976768;28;20046;-76
2023/05/16 07:35:12;;;;;;;8.02;1.55;;;;;;;15.73;48.04;102150.66;4976486;28;20113;-78
2023/05/16 07:37:40;;;;;;;6.32;1.52;;;;;;;15.22;49.44;102139.94;4978925;28;20462;-80
2023/05/16 07:40:06;;;;;;;6.70;1.40;;;;;;;14.89;48.78;102148.03;4960096;28;20030;-89
2023/05/16 07:42:32;;;;;;;8.45;1.55;;;;;;;14.75;50.53;102148.88;4976646;28;20023;-88
2023/05/16 07:44:57;;;;;;;5.78;1.45;;;;;;;14.68;50.20;102139.75;4978600;28;20037;-89
2023/05/16 07:47:23;;;;;;;6.18;1.20;;;;;;;14.64;50.91;102143.44;4977950;28;20436;-83
2023/05/16 07:49:48;;;;;;;8.23;1.75;;;;;;;14.68;51.35;102152.75;4977545;28;20531;-87
2023/05/16 07:52:13;;;;;;;7.68;1.63;;;;;;;14.60;51.24;102152.38;4977288;28;20117;-83
2023/05/16 07:54:39;;;;;;;9.43;2.03;;;;;;;14.53;52.58;102154.47;4977436;28;20109;-85
2023/05/16 07:57:06;;;;;;;7.22;1.55;;;;;;;14.47;51.66;102121.06;4959828;28;20129;-88
2023/05/16 07:59:31;;;;;;;7.47;1.55;;;;;;;14.63;51.83;102155.63;4977343;28;20500;-85
2023/05/16 08:01:56;;;;;;;5.93;1.33;;;;;;;14.66;52.73;102151.19;4977395;28;20022;-77
2023/05/16 08:04:22;;;;;;;4.78;1.35;;;;;;;14.59;52.71;102151.53;4977225;28;20157;-77
2023/05/16 08:06:47;;;;;;;10.57;1.42;;;;;;;14.43;53.20;102152.47;4977166;28;20027;-74
2023/05/16 08:09:12;;;;;;;9.45;1.60;;;;;;;14.31;53.68;102154.88;4976555;28;20035;-77
2023/05/16 08:11:38;;;;;;;9.00;1.77;;;;;;;14.49;54.83;102163.41;4976489;28;20058;-77
2023/05/16 08:14:04;;;;;;;7.22;1.83;;;;;;;14.01;53.74;102112.47;4976913;28;20039;-78
2023/05/16 08:16:30;;;;;;;9.02;1.83;;;;;;;13.85;54.38;102132.41;4976945;28;20037;-76
2023/05/16 08:18:55;;;;;;;7.53;1.77;;;;;;;13.67;54.70;102152.47;4976886;28;20037;-78
2023/05/16 08:21:20;;;;;;;8.85;1.70;;;;;;;13.47;54.89;102161.34;4977025;28;20074;-77
2023/05/16 08:23:46;;;;;;;7.40;1.55;;;;;;;13.05;57.12;102131.50;4976709;28;20027;-82
2023/05/16 08:26:11;;;;;;;8.40;1.65;;;;;;;13.16;56.35;102155.13;4976341;28;20034;-79
2023/05/16 08:28:36;;;;;;;7.50;1.27;;;;;;;13.19;56.17;102162.78;4976610;28;20033;-84
2023/05/16 08:31:02;;;;;;;5.22;1.13;;;;;;;13.10;58.12;102108.78;4976760;28;20027;-80
2023/05/16 08:33:27;;;;;;;6.60;1.10;;;;;;;13.53;57.36;102142.81;4975865;28;20098;-77
2023/05/16 08:35:53;;;;;;;5.85;1.20;;;;;;;13.88;56.09;102158.22;4976858;28;20035;-76
2023/05/16 08:38:19;;;;;;;3.78;1.20;;;;;;;13.76;55.10;102098.28;4976597;28;20019;-75
2023/05/16 08:40:44;;;;;;;5.07;1.30;;;;;;;14.16;51.85;102147.09;4976174;28;20031;-77
2023/05/16 08:43:10;;;;;;;7.63;1.80;;;;;;;14.07;53.42;102115.56;4976138;28;20146;-80
2023/05/16 08:45:36;;;;;;;5.80;1.48;;;;;;;14.23;53.41;102130.25;4976361;28;20478;-77
2023/05/16 08:48:03;;;;;;;5.72;1.45;;;;;;;14.54;53.40;102127.56;4976022;28;20050;-77
2023/05/16 08:50:31;;;;;;;11.18;1.63;;;;;;;14.29;51.97;102057.16;4976598;28;20030;-75
2023/05/16 08:52:56;;;;;;;5.30;1.40;;;;;;;14.95;54.65;102126.88;4976434;28;20029;-76
2023/05/16 08:55:25;;;;;;;6.18;1.55;;;;;;;14.99;51.13;102085.88;4976489;28;20035;-80
2023/05/16 08:57:51;;;;;;;7.80;1.20;;;;;;;15.12;49.22;102094.59;4976263;28;20031;-75
2023/05/16 09:00:18;;;;;;;6.97;1.30;;;;;;;15.45;51.52;102122.91;4976008;28;20030;-75
2023/05/16 09:02:44;;;;;;;6.82;1.30;;;;;;;15.27;50.67;102098.88;4976259;28;20054;-75
2023/05/16 09:05:12;;;;;;;6.57;1.30;;;;;;;15.25;51.96;102124.16;4976017;28;20031;-76
2023/05/16 09:07:37;;;;;;;5.35;1.10;;;;;;;15.30;50.86;102137.69;4975803;28;20023;-76
2023/05/16 09:10:05;;;;;;;5.97;1.30;;;;;;;15.66;52.38;102147.63;4975636;28;20042;-76
2023/05/16 09:12:31;;;;;;;6.65;1.48;;;;;;;15.66;50.52;102128.56;4975870;28;20023;-79
2023/05/16 09:14:57;;;;;;;5.90;1.27;;;;;;;15.39;49.04;102098.09;4976108;28;20031;-79
2023/05/16 09:17:22;;;;;;;6.95;1.30;;;;;;;14.82;51.51;102086.91;4976142;28;20026;-79
2023/05/16 09:19:55;;;;;;;6.20;1.90;;;;;;;14.69;52.76;102157.03;4975784;28;20039;-83
2023/05/16 09:22:22;;;;;;;8.23;1.70;;;;;;;14.43;53.37;102161.09;4975851;28;20073;-80
2023/05/16 09:24:48;;;;;;;8.45;1.55;;;;;;;14.15;53.21;102155.81;4975686;28;20023;-78
2023/05/16 09:27:14;;;;;;;6.25;1.48;;;;;;;13.73;56.10;102126.16;4975613;28;20035;-80
2023/05/16 09:29:44;;;;;;;6.18;1.70;;;;;;;13.92;55.82;102165.75;4975774;28;20031;-80
2023/05/16 09:32:15;;;;;;;7.25;1.60;;;;;;;13.66;52.54;102156.78;4975834;28;20041;-80
2023/05/16 09:34:46;;;;;;;4.78;1.25;;;;;;;13.59;54.03;102144.25;4975540;28;20022;-80
2023/05/16 09:37:12;;;;;;;7.90;1.77;;;;;;;13.86;53.12;102158.28;4975373;28;20154;-81
2023/05/16 09:39:48;;;;;;;5.18;1.08;;;;;;;14.12;54.94;102161.19;4975513;28;20143;-83
2023/05/16 09:42:15;;;;;;;7.53;1.20;;;;;;;13.75;51.86;102096.56;4975369;28;20090;-79
2023/05/16 09:44:44;;;;;;;4.38;1.00;;;;;;;13.97;50.45;102134.34;4975160;28;20381;-79
2023/05/16 09:47:12;;;;;;;4.88;1.17;;;;;;;14.31;57.17;102143.63;4975159;28;20023;-78
2023/05/16 09:49:38;;;;;;;6.20;1.55;;;;;;;14.58;51.05;102142.06;4975485;28;20022;-78
2023/05/16 09:52:04;;;;;;;3.25;1.00;;;;;;;14.89;49.59;102127.22;4975033;28;20084;-77
2023/05/16 09:54:31;;;;;;;6.70;1.40;;;;;;;14.85;50.02;102089.34;4975007;28;20470;-78
2023/05/16 09:56:57;;;;;;;5.28;1.27;;;;;;;15.03;49.24;102144.59;4975110;28;20529;-79
2023/05/16 09:59:22;;;;;;;5.97;1.30;;;;;;;14.69;50.31;102128.44;4975201;28;20031;-81
2023/05/16 10:01:49;;;;;;;8.25;2.03;;;;;;;14.42;49.94;102143.00;4975979;28;20034;-86
2023/05/16 10:04:15;;;;;;;5.38;1.25;;;;;;;14.17;51.40;102160.03;4976610;28;20031;-79
2023/05/16 10:06:42;;;;;;;6.57;1.30;;;;;;;14.28;53.46;102159.41;4976232;28;20030;-80
2023/05/16 10:09:11;;;;;;;10.45;1.70;;;;;;;14.50;53.00;102152.06;4975912;28;20466;-84
2023/05/16 10:11:40;;;;;;;6.45;1.30;;;;;;;14.59;48.61;102151.53;4978785;28;20054;-82
2023/05/16 10:14:11;;;;;;;6.47;1.45;;;;;;;14.88;49.89;102141.16;4979843;28;20023;-87
2023/05/16 10:16:42;;;;;;;4.75;0.85;;;;;;;14.95;46.77;102100.03;4977521;28;20022;-82
2023/05/16 10:19:07;;;;;;;4.50;1.00;;;;;;;14.75;46.17;102012.78;4975336;28;20399;-83
2023/05/16 10:21:34;;;;;;;4.25;1.10;;;;;;;15.57;42.86;102137.75;4975291;28;20381;-81
2023/05/16 10:24:03;;;;;;;3.05;0.85;;;;;;;15.35;45.73;102098.41;4974411;28;20097;-88
2023/05/16 10:26:31;;;;;;;5.28;1.00;;;;;;;15.58;45.67;102130.78;4974632;28;20030;-84
2023/05/16 10:28:56;;;;;;;3.97;1.00;;;;;;;15.54;44.39;102150.13;4974472;28;20069;-88
2023/05/16 10:31:23;;;;;;;4.80;1.13;;;;;;;15.40;45.97;102149.22;4974751;28;20058;-81
2023/05/16 10:33:49;;;;;;;5.68;1.35;;;;;;;15.09;45.99;102108.66;4973339;28;20425;-81
2023/05/16 10:36:16;;;;;;;6.55;1.13;;;;;;;15.37;44.97;102140.78;4975113;28;20023;-84
2023/05/16 10:38:42;;;;;;;4.45;0.90;;;;;;;15.29;47.12;102112.63;4974322;28;20027;-89
2023/05/16 10:41:09;;;;;;;4.85;1.10;;;;;;;15.49;47.02;102137.41;4974215;28;20391;-80
2023/05/16 10:43:35;;;;;;;7.13;1.38;;;;;;;15.40;45.10;102133.59;4974435;28;20038;-83
2023/05/16 10:46:06;;;;;;;5.45;0.90;;;;;;;14.96;45.16;102086.91;4974522;28;20042;-89
2023/05/16 10:48:34;;;;;;;8.38;1.70;;;;;;;15.14;44.69;102143.03;4974467;28;20037;-77
2023/05/16 10:51:02;;;;;;;5.95;1.45;;;;;;;14.69;45.38;102094.63;4974468;28;20538;-84
2023/05/16 10:53:29;;;;;;;4.63;1.00;;;;;;;14.80;46.47;102135.59;4974303;28;20027;-85
2023/05/16 10:55:57;;;;;;;5.85;1.35;;;;;;;14.86;46.24;102145.63;4973387;28;20125;-80
2023/05/16 10:58:37;;;;;;;4.50;1.17;;;;;;;15.06;46.55;102150.47;4974701;28;20027;-88
2023/05/16 11:01:21;;;;;;;6.35;1.30;;;;;;;15.11;47.35;102130.19;4974954;28;20050;-84
2023/05/16 11:04:01;;;;;;;5.53;1.40;;;;;;;15.13;47.51;102141.34;4973861;28;20466;-79
2023/05/16 11:06:41;;;;;;;4.97;0.95;;;;;;;14.88;47.98;102143.78;4974038;28;20054;-79
2023/05/16 11:09:16;;;;;;;8.93;1.20;;;;;;;14.68;48.93;102147.56;4973875;28;20027;-79
2023/05/16 11:11:50;;;;;;;7.40;1.38;;;;;;;14.58;49.97;102151.63;4973386;28;20080;-80
2023/05/16 11:14:31;;;;;;;6.60;1.10;;;;;;;14.41;51.22;102162.97;4973738;28;20383;-89
2023/05/16 11:17:19;;;;;;;7.93;1.33;;;;;;;14.50;50.32;102167.66;4973930;28;20058;-84
2023/05/16 11:19:49;;;;;;;7.22;1.63;;;;;;;14.56;49.78;102167.31;4973821;28;20027;-84
2023/05/16 11:22:41;;;;;;;8.65;1.80;;;;;;;14.73;49.63;102122.09;4974146;28;20031;-89